Time;durP1;ratioP1;P1;durP2;ratioP2;P2;SDS_P1;SDS_P2;PMS_P1;PMS_P2;Temp;Humidity;BMP_temperature;BMP_pressure;BME280_temperature;BME280_humidity;BME280_pressure;Samples;Min_cycle;Max_cycle;Signal;HPM_P1;HPM_P2
2023/08/06 00:00:26;;;;;;;0.50;0.20;;;;;;;19.10;90.19;99285.34;4999187;28;20572;-49
2023/08/06 00:02:53;;;;;;;0.40;0.20;;;;;;;18.97;90.54;99281.91;5004993;28;20545;-49
2023/08/06 00:05:22;;;;;;;0.40;0.20;;;;;;;19.06;90.20;99283.88;5000392;28;20453;-49
2023/08/06 00:07:49;;;;;;;0.40;0.20;;;;;;;18.97;90.15;99271.13;5004049;28;20520;-49
2023/08/06 00:10:16;;;;;;;0.40;0.20;;;;;;;18.89;90.16;99268.19;5005811;28;20465;-49
2023/08/06 00:12:46;;;;;;;0.40;0.20;;;;;;;19.02;90.12;99270.75;5001537;28;20930;-49
2023/08/06 00:15:12;;;;;;;0.40;0.20;;;;;;;19.01;90.06;99272.59;4999355;28;20450;-49
2023/08/06 00:17:38;;;;;;;0.50;0.40;;;;;;;19.00;90.14;99262.81;5003069;28;20452;-49
2023/08/06 00:20:06;;;;;;;0.40;0.20;;;;;;;19.03;89.57;99265.25;5005839;28;20488;-49
2023/08/06 00:22:37;;;;;;;0.40;0.20;;;;;;;19.03;90.13;99264.41;5002289;28;20444;-49
2023/08/06 00:25:05;;;;;;;0.40;0.20;;;;;;;19.01;90.13;99258.28;4998983;28;20452;-49
2023/08/06 00:27:32;;;;;;;0.40;0.20;;;;;;;19.19;89.48;99248.75;5002092;28;20585;-49
2023/08/06 00:29:59;;;;;;;0.40;0.20;;;;;;;18.96;89.63;99247.88;5005915;28;20481;-49
2023/08/06 00:32:25;;;;;;;0.40;0.20;;;;;;;19.03;89.87;99240.16;5001668;28;20949;-49
2023/08/06 00:34:51;;;;;;;0.40;0.20;;;;;;;19.10;89.23;99236.00;5005766;28;20457;-49
2023/08/06 00:37:18;;;;;;;0.40;0.20;;;;;;;19.02;89.92;99241.13;5005528;28;20448;-49
2023/08/06 00:39:45;;;;;;;0.40;0.20;;;;;;;18.94;91.27;99239.06;4998835;28;20500;-49
2023/08/06 00:42:12;;;;;;;0.43;0.20;;;;;;;18.99;94.07;99236.00;5001475;28;20943;-49
2023/08/06 00:44:39;;;;;;;0.40;0.20;;;;;;;18.97;94.97;99236.13;5001855;28;20445;-49
2023/08/06 00:47:07;;;;;;;0.40;0.20;;;;;;;18.87;94.62;99232.44;5012221;28;20557;-48
2023/08/06 00:49:38;;;;;;;0.40;0.20;;;;;;;18.89;94.47;99225.09;4998779;28;20483;-49
2023/08/06 00:52:07;;;;;;;0.40;0.20;;;;;;;18.70;94.74;99217.63;4999524;28;20449;-49
2023/08/06 00:54:34;;;;;;;0.40;0.20;;;;;;;18.87;94.17;99227.06;4987005;28;20459;-49
2023/08/06 00:57:02;;;;;;;0.40;0.20;;;;;;;18.66;96.03;99229.63;5002587;28;20492;-49
2023/08/06 00:59:30;;;;;;;0.40;0.20;;;;;;;18.47;96.65;99222.09;5009151;28;20548;-49
2023/08/06 01:01:57;;;;;;;0.40;0.20;;;;;;;18.53;96.58;99216.25;5009499;28;20452;-49
2023/08/06 01:04:24;;;;;;;0.40;0.20;;;;;;;18.50;97.05;99221.00;4999715;28;20472;-49
2023/08/06 01:07:14;;;;;;;0.40;0.20;;;;;;;18.43;96.80;99214.41;5008715;28;20831;-49
2023/08/06 01:09:56;;;;;;;0.40;0.20;;;;;;;18.33;97.97;99214.25;5006404;28;20480;-49
2023/08/06 01:12:40;;;;;;;0.40;0.20;;;;;;;18.49;98.03;99211.22;5009288;28;20536;-49
2023/08/06 01:15:11;;;;;;;0.40;0.20;;;;;;;18.49;97.73;99211.22;5009101;28;20449;-49
2023/08/06 01:17:39;;;;;;;0.40;0.20;;;;;;;18.46;97.94;99203.38;5005068;28;20930;-49
2023/08/06 01:20:06;;;;;;;0.40;0.20;;;;;;;18.45;97.53;99204.38;5002133;28;20480;-49
2023/08/06 01:22:32;;;;;;;0.40;0.20;;;;;;;18.46;98.24;99196.16;5005620;28;20453;-49
2023/08/06 01:24:59;;;;;;;0.40;0.20;;;;;;;18.35;97.50;99191.63;5008827;28;20460;-49
2023/08/06 01:27:30;;;;;;;0.40;0.20;;;;;;;18.40;97.29;99191.28;5005384;28;20933;-49
2023/08/06 01:30:14;;;;;;;0.40;0.20;;;;;;;18.48;96.87;99183.44;5000072;28;20531;-47
2023/08/06 01:32:44;;;;;;;0.40;0.20;;;;;;;18.27;96.63;99174.38;5001428;28;20547;-47
2023/08/06 01:35:13;;;;;;;0.40;0.30;;;;;;;18.39;96.44;99173.41;4989520;28;21002;-48
2023/08/06 01:37:41;;;;;;;0.40;0.20;;;;;;;18.28;97.34;99170.72;5001765;28;20445;-48
2023/08/06 01:40:14;;;;;;;0.40;0.20;;;;;;;18.22;95.96;99172.03;5004938;28;20479;-47
2023/08/06 01:42:40;;;;;;;0.40;0.20;;;;;;;18.23;96.83;99168.38;5002130;28;20456;-47
2023/08/06 01:45:08;;;;;;;0.40;0.20;;;;;;;18.08;96.71;99163.31;5006113;28;20954;-48
2023/08/06 01:47:35;;;;;;;0.40;0.20;;;;;;;18.10;97.03;99161.41;5008444;28;20492;-47
2023/08/06 01:50:03;;;;;;;0.40;0.20;;;;;;;17.94;97.08;99142.88;5004456;28;20842;-48
2023/08/06 01:52:29;;;;;;;0.40;0.20;;;;;;;18.03;97.50;99144.88;5001695;28;20463;-47
2023/08/06 01:54:55;;;;;;;0.40;0.20;;;;;;;17.88;97.34;99154.97;5005221;28;20458;-47
2023/08/06 01:57:22;;;;;;;0.50;0.20;;;;;;;17.91;96.51;99160.09;5008471;28;20457;-48
2023/08/06 01:59:49;;;;;;;0.50;0.20;;;;;;;17.94;97.21;99161.69;5003784;28;20472;-48
2023/08/06 02:02:15;;;;;;;0.40;0.20;;;;;;;17.97;97.21;99161.47;5008192;28;20475;-48
2023/08/06 02:04:42;;;;;;;0.40;0.20;;;;;;;17.88;96.99;99171.09;5004439;28;20514;-47
2023/08/06 02:07:08;;;;;;;0.40;0.20;;;;;;;17.85;97.17;99151.66;5000661;28;20464;-48
2023/08/06 02:09:35;;;;;;;0.40;0.20;;;;;;;17.77;96.92;99153.09;5008527;28;20560;-47
2023/08/06 02:12:02;;;;;;;0.40;0.20;;;;;;;17.74;96.79;99160.56;5007947;28;20489;-47
2023/08/06 02:14:29;;;;;;;0.40;0.20;;;;;;;17.78;96.91;99159.34;5004620;28;20519;-47
2023/08/06 02:16:55;;;;;;;0.40;0.20;;;;;;;17.91;96.64;99157.41;5001036;28;20452;-47
2023/08/06 02:19:22;;;;;;;0.40;0.20;;;;;;;18.00;96.03;99162.09;5004415;28;20504;-47
2023/08/06 02:21:48;;;;;;;0.40;0.20;;;;;;;17.98;95.92;99155.13;5007743;28;20434;-47
2023/08/06 02:24:14;;;;;;;0.40;0.20;;;;;;;17.89;95.84;99154.00;5003234;28;20901;-47
2023/08/06 02:26:41;;;;;;;0.40;0.20;;;;;;;17.83;96.24;99153.63;5007759;28;20461;-47
2023/08/06 02:29:07;;;;;;;0.40;0.20;;;;;;;17.83;96.63;99151.78;5004181;28;20499;-47
2023/08/06 02:31:34;;;;;;;0.40;0.20;;;;;;;17.86;95.38;99156.94;5000600;28;20476;-48
2023/08/06 02:34:00;;;;;;;0.40;0.20;;;;;;;17.85;95.27;99157.91;5003878;28;20453;-48
2023/08/06 02:36:29;;;;;;;0.50;0.20;;;;;;;17.77;95.73;99158.47;5007590;28;20892;-48
2023/08/06 02:38:55;;;;;;;0.47;0.30;;;;;;;17.75;95.30;99152.38;4997017;28;20450;-48
2023/08/06 02:41:22;;;;;;;0.50;0.20;;;;;;;17.73;95.19;99145.41;5007477;28;20552;-47
2023/08/06 02:43:48;;;;;;;0.40;0.20;;;;;;;17.85;94.90;99151.66;4998845;28;20468;-48
2023/08/06 02:46:15;;;;;;;0.40;0.20;;;;;;;17.75;94.85;99135.38;5004329;28;20453;-48
2023/08/06 02:48:41;;;;;;;0.40;0.20;;;;;;;17.82;95.83;99136.63;5002210;28;20576;-47
2023/08/06 02:51:08;;;;;;;0.40;0.20;;;;;;;17.81;95.97;99140.28;5007013;28;20470;-47
2023/08/06 02:53:34;;;;;;;0.40;0.20;;;;;;;17.83;95.70;99140.19;5006107;28;20462;-48
2023/08/06 02:56:00;;;;;;;0.40;0.20;;;;;;;17.74;96.12;99130.97;5000432;28;20539;-47
2023/08/06 02:58:27;;;;;;;0.40;0.20;;;;;;;17.83;96.02;99124.91;5001286;28;20970;-48
2023/08/06 03:01:05;;;;;;;0.40;0.20;;;;;;;17.87;96.35;99120.13;5007127;28;20473;-48
2023/08/06 03:03:32;;;;;;;0.40;0.20;;;;;;;17.90;95.98;99120.75;5006876;28;20980;-47
2023/08/06 03:05:59;;;;;;;0.40;0.20;;;;;;;17.99;95.88;99120.06;5001436;28;20531;-47
2023/08/06 03:08:26;;;;;;;0.40;0.20;;;;;;;17.97;96.13;99124.69;5000363;28;20503;-47
2023/08/06 03:10:52;;;;;;;0.40;0.20;;;;;;;18.09;97.40;99116.63;5006094;28;20530;-47
2023/08/06 03:13:19;;;;;;;0.40;0.20;;;;;;;18.04;97.50;99119.69;5003749;28;20449;-47
2023/08/06 03:15:59;;;;;;;0.40;0.20;;;;;;;18.20;96.91;99113.94;5005845;28;20457;-47
2023/08/06 03:18:26;;;;;;;0.40;0.20;;;;;;;17.88;99.19;99121.84;5007737;28;20480;-48
2023/08/06 03:20:53;;;;;;;0.40;0.20;;;;;;;17.80;99.88;99105.44;5003668;28;20520;-47
2023/08/06 03:23:20;;;;;;;0.40;0.20;;;;;;;17.70;100.00;99110.69;5005242;28;20457;-47
2023/08/06 03:25:46;;;;;;;0.40;0.20;;;;;;;17.67;100.00;99100.97;5003180;28;20548;-47
2023/08/06 03:28:13;;;;;;;0.40;0.20;;;;;;;17.58;100.00;99103.53;5005978;28;20486;-47
2023/08/06 03:30:39;;;;;;;0.40;0.20;;;;;;;17.57;100.00;99097.31;5003583;28;20480;-48
2023/08/06 03:33:06;;;;;;;0.40;0.20;;;;;;;17.50;100.00;99108.63;4999638;28;20520;-47
2023/08/06 03:35:32;;;;;;;0.40;0.20;;;;;;;17.72;100.00;99098.84;5002011;28;20454;-47
2023/08/06 03:37:59;;;;;;;0.40;0.20;;;;;;;17.57;100.00;99102.69;5006327;28;20481;-47
2023/08/06 03:40:25;;;;;;;0.40;0.20;;;;;;;17.44;100.00;99107.28;4995709;28;20479;-47
2023/08/06 03:42:52;;;;;;;0.40;0.20;;;;;;;17.41;100.00;99100.31;4998863;28;20535;-47
2023/08/06 03:45:18;;;;;;;0.40;0.20;;;;;;;17.59;100.00;99097.19;5003082;28;20914;-48
2023/08/06 03:47:44;;;;;;;0.40;0.20;;;;;;;17.52;100.00;99091.41;5007972;28;20459;-48
2023/08/06 03:50:11;;;;;;;0.40;0.20;;;;;;;17.66;100.00;99101.09;5002300;28;21057;-48
2023/08/06 03:52:38;;;;;;;0.40;0.20;;;;;;;17.55;100.00;99101.94;5006334;28;20564;-47
2023/08/06 03:55:04;;;;;;;0.40;0.20;;;;;;;17.50;100.00;99103.25;5003453;28;20452;-47
2023/08/06 03:57:31;;;;;;;0.40;0.20;;;;;;;17.48;100.00;99093.47;4999373;28;20431;-47
2023/08/06 03:59:57;;;;;;;0.40;0.20;;;;;;;17.60;100.00;99096.22;5001860;28;20465;-47
2023/08/06 04:02:23;;;;;;;0.40;0.20;;;;;;;17.69;100.00;99093.72;5007220;28;20464;-47
2023/08/06 04:04:50;;;;;;;0.40;0.20;;;;;;;17.48;100.00;99098.84;5002198;28;20459;-47
2023/08/06 04:07:16;;;;;;;0.40;0.20;;;;;;;17.47;100.00;99097.13;5006145;28;20509;-47
2023/08/06 04:09:53;;;;;;;0.40;0.20;;;;;;;17.48;100.00;99089.94;5003498;28;20488;-47
2023/08/06 04:12:19;;;;;;;0.40;0.20;;;;;;;17.45;100.00;99098.25;4999019;28;20449;-47
2023/08/06 04:14:48;;;;;;;0.40;0.20;;;;;;;17.41;100.00;99100.31;4999843;28;20456;-48
2023/08/06 04:17:14;;;;;;;0.40;0.20;;;;;;;17.35;100.00;99092.69;5006141;28;20541;-48
2023/08/06 04:19:41;;;;;;;0.40;0.20;;;;;;;17.51;100.00;99095.06;5005787;28;20495;-48
2023/08/06 04:22:07;;;;;;;0.40;0.20;;;;;;;17.47;100.00;99097.13;4999499;28;21020;-47
2023/08/06 04:24:34;;;;;;;0.40;0.20;;;;;;;17.38;100.00;99088.91;5011247;28;20463;-48
2023/08/06 04:27:00;;;;;;;0.40;0.20;;;;;;;17.40;100.00;99098.56;4986196;28;20483;-47
2023/08/06 04:29:26;;;;;;;0.40;0.20;;;;;;;17.31;100.00;99095.75;4999846;28;20858;-48
2023/08/06 04:31:53;;;;;;;0.40;0.20;;;;;;;17.40;100.00;99095.88;5009645;28;20507;-47
2023/08/06 04:34:20;;;;;;;0.40;0.20;;;;;;;17.35;100.00;99097.22;5009552;28;20431;-47
2023/08/06 04:36:46;;;;;;;0.40;0.20;;;;;;;17.44;100.00;99094.69;4990208;28;20551;-47
2023/08/06 04:39:13;;;;;;;0.40;0.20;;;;;;;17.43;100.00;99092.97;5002882;28;20540;-48
2023/08/06 04:41:39;;;;;;;0.40;0.20;;;;;;;17.44;100.00;99083.94;5009285;28;20457;-47
2023/08/06 04:44:05;;;;;;;0.40;0.20;;;;;;;17.51;100.00;99078.94;4996972;28;20453;-47
2023/08/06 04:46:32;;;;;;;0.40;0.20;;;;;;;17.57;100.00;99089.25;5003596;28;20449;-48
2023/08/06 04:48:58;;;;;;;0.40;0.20;;;;;;;17.32;100.00;99089.41;5002107;28;20500;-48
2023/08/06 04:51:25;;;;;;;0.40;0.20;;;;;;;17.34;100.00;99085.63;5008871;28;20476;-48
2023/08/06 04:53:51;;;;;;;0.40;0.20;;;;;;;17.50;100.00;99084.44;5009125;28;20555;-48
2023/08/06 04:56:18;;;;;;;0.40;0.20;;;;;;;17.55;100.00;99085.81;5002978;28;20539;-47
2023/08/06 04:58:44;;;;;;;0.40;0.20;;;;;;;17.43;100.00;99084.06;5013059;28;20463;-48
2023/08/06 05:01:11;;;;;;;0.40;0.20;;;;;;;17.33;100.00;99088.41;5003243;28;20480;-47
2023/08/06 05:03:37;;;;;;;0.40;0.20;;;;;;;17.42;100.00;99082.34;5002300;28;20460;-47
2023/08/06 05:06:04;;;;;;;0.40;0.20;;;;;;;17.34;100.00;99087.44;5008163;28;20506;-47
2023/08/06 05:08:30;;;;;;;0.40;0.20;;;;;;;17.21;100.00;99082.13;5006153;28;20493;-47
2023/08/06 05:10:56;;;;;;;0.40;0.20;;;;;;;17.32;100.00;99092.94;5007995;28;20477;-47
2023/08/06 05:13:23;;;;;;;0.40;0.20;;;;;;;17.48;100.00;99087.25;5008570;28;20457;-48
2023/08/06 05:15:50;;;;;;;0.40;0.20;;;;;;;17.31;100.00;99093.91;5003826;28;20584;-47
2023/08/06 05:18:16;;;;;;;0.40;0.20;;;;;;;17.28;100.00;99094.16;5002092;28;20445;-47
2023/08/06 05:20:43;;;;;;;0.40;0.20;;;;;;;17.27;100.00;99091.56;5007122;28;20584;-47
2023/08/06 05:23:09;;;;;;;0.40;0.20;;;;;;;17.40;100.00;99089.66;5006898;28;20462;-47
2023/08/06 05:25:36;;;;;;;0.40;0.20;;;;;;;17.20;100.00;99093.84;4992497;28;20453;-48
2023/08/06 05:28:03;;;;;;;0.40;0.20;;;;;;;17.20;100.00;99088.47;5001884;28;20878;-47
2023/08/06 05:30:29;;;;;;;0.40;0.20;;;;;;;17.30;100.00;99096.72;5006426;28;20509;-47
2023/08/06 05:32:56;;;;;;;0.40;0.20;;;;;;;17.15;100.00;99096.03;5008585;28;20483;-47
2023/08/06 05:35:23;;;;;;;0.40;0.20;;;;;;;17.30;100.00;99091.34;5003921;28;20820;-47
2023/08/06 05:37:52;;;;;;;0.40;0.20;;;;;;;17.27;100.00;99092.44;5004599;28;20839;-47
2023/08/06 05:40:19;;;;;;;0.40;0.20;;;;;;;17.22;100.00;99101.78;5004964;28;20551;-48
2023/08/06 05:42:45;;;;;;;0.40;0.20;;;;;;;17.21;100.00;99089.34;5001072;28;20544;-47
2023/08/06 05:45:12;;;;;;;0.40;0.20;;;;;;;17.23;100.00;99096.31;5007278;28;20531;-47
2023/08/06 05:47:38;;;;;;;0.40;0.20;;;;;;;17.18;100.00;99093.97;5009972;28;21190;-47
2023/08/06 05:50:06;;;;;;;0.40;0.20;;;;;;;17.10;100.00;99096.34;5006038;28;20567;-47
2023/08/06 05:52:32;;;;;;;0.40;0.20;;;;;;;16.99;100.00;99098.97;5001399;28;20445;-47
2023/08/06 05:54:58;;;;;;;0.40;0.20;;;;;;;17.10;100.00;99099.03;5005563;28;20970;-46
2023/08/06 05:57:25;;;;;;;0.40;0.20;;;;;;;17.12;100.00;99096.25;4999351;28;20452;-47
2023/08/06 05:59:51;;;;;;;0.40;0.20;;;;;;;17.29;100.00;99100.38;5005890;28;20959;-47
2023/08/06 06:02:18;;;;;;;0.40;0.20;;;;;;;17.14;100.00;99103.25;5001302;28;20453;-48
2023/08/06 06:04:45;;;;;;;0.40;0.20;;;;;;;17.14;100.00;99097.88;5004633;28;20460;-48
2023/08/06 06:07:11;;;;;;;0.40;0.20;;;;;;;17.01;100.00;99088.16;5008059;28;20463;-47
2023/08/06 06:09:39;;;;;;;0.40;0.20;;;;;;;17.10;100.00;99100.88;5004834;28;20527;-48
2023/08/06 06:12:06;;;;;;;0.40;0.20;;;;;;;17.22;100.00;99096.41;5001341;28;20483;-48
2023/08/06 06:14:32;;;;;;;0.40;0.20;;;;;;;17.12;100.00;99101.63;5003301;28;20908;-48
2023/08/06 06:17:00;;;;;;;0.40;0.20;;;;;;;17.08;100.00;99102.81;5007716;28;20927;-47
2023/08/06 06:19:26;;;;;;;0.40;0.20;;;;;;;17.17;100.00;99105.69;5005634;28;20515;-47
2023/08/06 06:21:57;;;;;;;0.40;0.20;;;;;;;17.32;100.00;99109.06;5000854;28;20452;-48
2023/08/06 06:24:24;;;;;;;0.40;0.20;;;;;;;17.30;100.00;99111.00;5008007;28;20463;-47
2023/08/06 06:26:50;;;;;;;0.40;0.20;;;;;;;17.38;100.00;99108.56;4997116;28;20464;-48
2023/08/06 06:29:17;;;;;;;0.40;0.20;;;;;;;17.33;100.00;99118.81;5006637;28;20489;-48
2023/08/06 06:31:43;;;;;;;0.40;0.20;;;;;;;17.40;100.00;99114.69;4990927;28;20820;-48
2023/08/06 06:34:10;;;;;;;0.40;0.20;;;;;;;17.26;100.00;99111.31;5006456;28;20544;-47
2023/08/06 06:36:36;;;;;;;0.40;0.20;;;;;;;17.41;100.00;99116.44;5000862;28;20540;-47
2023/08/06 06:39:03;;;;;;;0.40;0.20;;;;;;;17.38;100.00;99113.94;5002296;28;20489;-47
2023/08/06 06:41:31;;;;;;;0.40;0.20;;;;;;;17.50;100.00;99114.00;5007268;28;20970;-48
2023/08/06 06:43:58;;;;;;;0.40;0.20;;;;;;;17.42;100.00;99104.72;4996160;28;20512;-48
2023/08/06 06:46:25;;;;;;;0.40;0.20;;;;;;;17.46;100.00;99108.88;5013461;28;20491;-48
2023/08/06 06:48:52;;;;;;;0.40;0.20;;;;;;;17.54;100.00;99113.63;5000897;28;20825;-47
2023/08/06 06:51:18;;;;;;;0.40;0.20;;;;;;;17.57;100.00;99118.81;5007270;28;20512;-48
2023/08/06 06:53:45;;;;;;;0.40;0.20;;;;;;;17.65;100.00;99111.00;5007034;28;20456;-47
2023/08/06 06:56:11;;;;;;;0.40;0.20;;;;;;;17.80;100.00;99122.44;4987296;28;20964;-48
2023/08/06 06:58:39;;;;;;;0.40;0.20;;;;;;;17.87;100.00;99123.69;5000985;28;20456;-48
2023/08/06 07:01:07;;;;;;;0.40;0.20;;;;;;;17.76;100.00;99120.97;4988002;28;20556;-48
2023/08/06 07:03:34;;;;;;;0.40;0.20;;;;;;;17.97;100.00;99122.00;4999707;28;20552;-48
2023/08/06 07:06:00;;;;;;;0.40;0.20;;;;;;;18.14;100.00;99112.59;5001937;28;20503;-47
2023/08/06 07:08:27;;;;;;;0.40;0.20;;;;;;;18.14;100.00;99120.69;5001248;28;20827;-49
2023/08/06 07:11:04;;;;;;;0.40;0.20;;;;;;;18.29;100.00;99114.09;5006438;28;20959;-47
2023/08/06 07:13:32;;;;;;;0.40;0.20;;;;;;;18.29;100.00;99113.22;5006465;28;20924;-47
2023/08/06 07:15:58;;;;;;;0.40;0.20;;;;;;;18.26;100.00;99116.19;5002425;28;20544;-48
2023/08/06 07:18:25;;;;;;;0.40;0.20;;;;;;;18.43;100.00;99107.59;5000168;28;20472;-48
2023/08/06 07:20:52;;;;;;;0.40;0.20;;;;;;;18.63;100.00;99108.69;5003986;28;20556;-48
2023/08/06 07:23:21;;;;;;;0.40;0.20;;;;;;;18.66;100.00;99110.34;5006546;28;20493;-48
2023/08/06 07:25:48;;;;;;;0.40;0.20;;;;;;;18.50;100.00;99110.66;5003206;28;20547;-47
2023/08/06 07:28:15;;;;;;;0.40;0.20;;;;;;;18.80;100.00;99102.00;4999712;28;20449;-48
2023/08/06 07:30:43;;;;;;;0.40;0.20;;;;;;;18.93;100.00;99116.16;5003369;28;20524;-50
2023/08/06 07:33:10;;;;;;;0.40;0.20;;;;;;;19.05;100.00;99116.97;5006521;28;20883;-50
2023/08/06 07:35:38;;;;;;;0.40;0.20;;;;;;;18.98;100.00;99116.63;5003616;28;20814;-50
2023/08/06 07:38:04;;;;;;;0.40;0.20;;;;;;;19.42;100.00;99117.47;4998931;28;20459;-50
2023/08/06 07:40:31;;;;;;;0.40;0.20;;;;;;;19.39;99.33;99121.28;5003948;28;20558;-50
2023/08/06 07:42:57;;;;;;;0.40;0.20;;;;;;;19.66;96.97;99120.84;4999489;28;20914;-51
2023/08/06 07:45:24;;;;;;;0.40;0.20;;;;;;;19.55;96.64;99115.50;5005348;28;20449;-51
2023/08/06 07:47:51;;;;;;;0.40;0.20;;;;;;;19.96;96.75;99108.41;5007832;28;20872;-51
2023/08/06 07:50:17;;;;;;;0.40;0.20;;;;;;;20.04;96.78;99112.16;5004406;28;20492;-50
2023/08/06 07:52:44;;;;;;;0.40;0.20;;;;;;;20.38;93.69;99110.06;4999544;28;20459;-50
2023/08/06 07:55:10;;;;;;;0.40;0.20;;;;;;;20.17;92.73;99106.56;5001101;28;20462;-50
2023/08/06 07:57:37;;;;;;;0.40;0.20;;;;;;;20.10;93.00;99108.91;5006597;28;20454;-50
2023/08/06 08:00:05;;;;;;;0.40;0.20;;;;;;;20.18;91.58;99107.41;5004760;28;20540;-50
2023/08/06 08:02:31;;;;;;;0.40;0.20;;;;;;;20.03;92.28;99101.50;4999750;28;20475;-49
2023/08/06 08:04:58;;;;;;;0.40;0.20;;;;;;;20.24;91.24;99104.16;5000611;28;20935;-51
2023/08/06 08:07:24;;;;;;;0.40;0.20;;;;;;;20.00;90.07;99099.06;5005949;28;20453;-50
2023/08/06 08:09:51;;;;;;;0.40;0.20;;;;;;;19.99;90.99;99098.19;5004390;28;20496;-50
2023/08/06 08:12:17;;;;;;;0.40;0.20;;;;;;;20.10;91.80;99100.81;4999430;28;20443;-50
2023/08/06 08:14:45;;;;;;;0.40;0.20;;;;;;;20.10;92.64;99094.56;5000424;28;20453;-51
2023/08/06 08:17:12;;;;;;;0.40;0.20;;;;;;;20.10;91.83;99092.72;5006169;28;20503;-50
2023/08/06 08:19:40;;;;;;;0.40;0.20;;;;;;;20.24;92.18;99087.97;5005304;28;20464;-50
2023/08/06 08:22:07;;;;;;;0.40;0.20;;;;;;;19.70;93.73;99098.00;5006094;28;20456;-50
2023/08/06 08:24:34;;;;;;;0.40;0.20;;;;;;;19.51;97.35;99103.22;5005881;28;20448;-51
2023/08/06 08:27:01;;;;;;;0.40;0.20;;;;;;;19.24;98.86;99101.88;4986591;28;20454;-50
2023/08/06 08:29:27;;;;;;;0.40;0.20;;;;;;;19.39;99.07;99098.88;4999000;28;20493;-50
2023/08/06 08:31:53;;;;;;;0.40;0.20;;;;;;;18.76;100.00;99095.97;5005752;28;20789;-51
2023/08/06 08:34:20;;;;;;;0.40;0.20;;;;;;;19.04;100.00;99093.72;5005739;28;20463;-50
2023/08/06 08:36:47;;;;;;;0.40;0.30;;;;;;;18.40;100.00;99101.63;5000037;28;20517;-50
2023/08/06 08:39:14;;;;;;;0.40;0.20;;;;;;;18.28;100.00;99093.53;4999117;28;20532;-50
2023/08/06 08:41:42;;;;;;;0.40;0.20;;;;;;;18.55;100.00;99093.16;5005316;28;20454;-51
2023/08/06 08:44:10;;;;;;;0.40;0.20;;;;;;;18.85;100.00;99091.69;4998899;28;20450;-50
2023/08/06 08:46:39;;;;;;;0.40;0.20;;;;;;;18.72;100.00;99090.97;5012399;28;20892;-50
2023/08/06 08:49:06;;;;;;;0.40;0.20;;;;;;;19.11;100.00;99093.09;4998968;28;20449;-50
2023/08/06 08:51:36;;;;;;;0.40;0.20;;;;;;;19.12;100.00;99097.50;5003964;28;20470;-50
2023/08/06 08:54:04;;;;;;;0.40;0.20;;;;;;;19.13;97.25;99093.81;5006072;28;20801;-51
2023/08/06 08:56:31;;;;;;;0.40;0.20;;;;;;;19.29;98.03;99101.47;5001692;28;20423;-49
2023/08/06 08:58:58;;;;;;;0.40;0.20;;;;;;;19.42;96.35;99104.00;4998890;28;20485;-51
2023/08/06 09:01:28;;;;;;;0.40;0.20;;;;;;;19.44;96.18;99099.31;5002887;28;20473;-50
2023/08/06 09:03:55;;;;;;;0.40;0.20;;;;;;;19.34;93.77;99093.88;5005331;28;20449;-50
2023/08/06 09:06:25;;;;;;;0.40;0.20;;;;;;;19.24;95.18;99101.88;5002781;28;20536;-50
2023/08/06 09:09:01;;;;;;;0.40;0.20;;;;;;;19.43;93.45;99095.78;4998875;28;20474;-50
2023/08/06 09:11:28;;;;;;;0.40;0.20;;;;;;;19.38;92.71;99102.56;4999760;28;21018;-50
2023/08/06 09:13:56;;;;;;;0.40;0.20;;;;;;;19.29;93.51;99103.31;5005653;28;20460;-50
2023/08/06 09:16:23;;;;;;;0.40;0.20;;;;;;;19.19;93.55;99098.72;5007017;28;20448;-50
2023/08/06 09:18:50;;;;;;;0.40;0.20;;;;;;;19.12;93.61;99108.28;5002517;28;20460;-50
2023/08/06 09:21:16;;;;;;;0.40;0.20;;;;;;;19.19;95.46;99098.72;5002831;28;20509;-50
2023/08/06 09:23:43;;;;;;;0.40;0.20;;;;;;;19.41;94.57;99100.44;5009087;28;20838;-50
2023/08/06 09:26:12;;;;;;;0.40;0.20;;;;;;;19.53;94.97;99101.25;5008579;28;20920;-50
2023/08/06 09:28:43;;;;;;;0.40;0.20;;;;;;;19.33;95.73;99108.34;5008209;28;20536;-50
2023/08/06 09:31:10;;;;;;;0.40;0.20;;;;;;;19.37;93.63;99108.94;5008371;28;20997;-51
2023/08/06 09:33:37;;;;;;;0.40;0.20;;;;;;;19.39;93.53;99112.34;5003448;28;20449;-50
2023/08/06 09:36:09;;;;;;;0.40;0.20;;;;;;;19.46;93.78;99114.41;5002006;28;20528;-50
2023/08/06 09:38:40;;;;;;;0.40;0.20;;;;;;;19.23;92.93;99121.72;5006891;28;20463;-50
2023/08/06 09:41:07;;;;;;;0.40;0.20;;;;;;;19.29;93.78;99125.72;5008387;28;20443;-50
2023/08/06 09:43:43;;;;;;;0.40;0.20;;;;;;;19.43;92.95;99132.66;5001019;28;20488;-50
2023/08/06 09:46:14;;;;;;;0.40;0.20;;;;;;;19.12;93.84;99146.00;5001092;28;20500;-50
2023/08/06 09:48:41;;;;;;;0.40;0.20;;;;;;;19.02;94.85;99139.63;5004324;28;20431;-50
2023/08/06 09:51:08;;;;;;;0.40;0.20;;;;;;;19.45;93.97;99136.06;5001803;28;20502;-50
2023/08/06 09:53:37;;;;;;;0.40;0.20;;;;;;;19.33;93.99;99137.97;5003542;28;20878;-50
2023/08/06 09:56:04;;;;;;;0.40;0.20;;;;;;;19.42;94.75;99137.19;5008137;28;20536;-50
2023/08/06 09:58:32;;;;;;;0.40;0.20;;;;;;;19.41;94.87;99140.03;5007283;28;20483;-50
2023/08/06 10:01:01;;;;;;;0.40;0.20;;;;;;;19.33;94.46;99146.06;5001656;28;20471;-51
2023/08/06 10:03:28;;;;;;;0.40;0.20;;;;;;;19.33;93.25;99137.97;5002351;28;20453;-50
2023/08/06 10:05:56;;;;;;;0.40;0.20;;;;;;;19.35;92.50;99136.00;5008397;28;20977;-50
2023/08/06 10:08:23;;;;;;;0.40;0.20;;;;;;;19.33;91.43;99143.38;5004458;28;21079;-50
2023/08/06 10:10:50;;;;;;;0.40;0.20;;;;;;;19.64;90.72;99139.00;5007956;28;20976;-49
2023/08/06 10:13:22;;;;;;;0.40;0.20;;;;;;;19.89;90.03;99145.00;5007960;28;20955;-49
2023/08/06 10:15:50;;;;;;;0.40;0.20;;;;;;;19.73;87.81;99151.66;5002146;28;20459;-49
2023/08/06 10:18:21;;;;;;;0.40;0.20;;;;;;;19.65;87.13;99156.03;5000516;28;20449;-50
2023/08/06 10:20:47;;;;;;;0.40;0.20;;;;;;;19.66;86.45;99155.88;4996200;28;20474;-50
2023/08/06 10:23:14;;;;;;;0.40;0.20;;;;;;;19.85;85.95;99163.25;4995602;28;20438;-50
2023/08/06 10:25:42;;;;;;;0.40;0.20;;;;;;;19.88;86.03;99167.56;4994992;28;20527;-51
2023/08/06 10:28:15;;;;;;;0.40;0.20;;;;;;;19.77;84.68;99169.31;5000815;28;20446;-50
2023/08/06 10:30:44;;;;;;;0.40;0.20;;;;;;;19.75;85.19;99173.16;5002996;28;21008;-51
2023/08/06 10:33:10;;;;;;;0.40;0.20;;;;;;;19.87;85.79;99174.78;5007866;28;20456;-51
2023/08/06 10:35:45;;;;;;;0.40;0.20;;;;;;;19.82;84.81;99190.50;4997016;28;20464;-51
2023/08/06 10:38:14;;;;;;;0.40;0.20;;;;;;;19.82;86.45;99194.06;5008128;28;20459;-50
2023/08/06 10:40:53;;;;;;;0.40;0.20;;;;;;;19.68;86.30;99194.34;4995304;28;20432;-50
2023/08/06 10:43:34;;;;;;;0.40;0.20;;;;;;;19.55;87.19;99199.06;4987066;28;20988;-50
2023/08/06 10:46:02;;;;;;;0.40;0.20;;;;;;;19.57;86.96;99204.31;5003082;28;20487;-50
2023/08/06 10:48:38;;;;;;;0.40;0.20;;;;;;;19.56;88.09;99210.69;4994097;28;20855;-50
2023/08/06 10:51:08;;;;;;;0.40;0.20;;;;;;;19.41;89.56;99205.56;5001782;28;20561;-50
2023/08/06 10:53:35;;;;;;;0.40;0.20;;;;;;;19.42;89.79;99201.88;5005510;28;20444;-50
2023/08/06 10:56:02;;;;;;;0.40;0.20;;;;;;;19.17;89.02;99221.03;4996396;28;20532;-49
2023/08/06 10:58:33;;;;;;;0.40;0.20;;;;;;;19.16;89.82;99219.31;4994114;28;20495;-50
2023/08/06 11:01:00;;;;;;;0.40;0.20;;;;;;;19.12;90.20;99226.81;5007030;28;20560;-50
2023/08/06 11:03:27;;;;;;;0.40;0.20;;;;;;;19.14;89.97;99234.75;4994860;28;20840;-50
2023/08/06 11:05:56;;;;;;;0.40;0.20;;;;;;;19.16;88.80;99247.13;5007428;28;20983;-50
2023/08/06 11:08:28;;;;;;;0.40;0.20;;;;;;;19.16;87.14;99243.56;4999896;28;20453;-49
2023/08/06 11:10:55;;;;;;;0.40;0.20;;;;;;;19.13;87.24;99243.81;5000492;28;20494;-50
2023/08/06 11:13:29;;;;;;;0.40;0.20;;;;;;;18.84;85.08;99243.47;5000072;28;21022;-50
2023/08/06 11:15:57;;;;;;;0.40;0.20;;;;;;;19.10;87.15;99252.16;5000397;28;20453;-50
2023/08/06 11:18:24;;;;;;;0.40;0.20;;;;;;;19.10;85.71;99257.56;5005142;28;20453;-50
2023/08/06 11:20:50;;;;;;;0.40;0.20;;;;;;;18.91;84.66;99266.22;5012091;28;20534;-50
2023/08/06 11:23:18;;;;;;;0.40;0.20;;;;;;;18.87;85.35;99265.63;4999811;28;20523;-50
2023/08/06 11:25:45;;;;;;;0.40;0.20;;;;;;;18.92;88.04;99276.03;5005868;28;20526;-50
2023/08/06 11:28:12;;;;;;;0.40;0.20;;;;;;;18.80;86.83;99291.34;5004384;28;20428;-50
2023/08/06 11:30:39;;;;;;;0.40;0.20;;;;;;;18.93;87.14;99275.91;5002734;28;20989;-50